sensor_id;sensor_type;location;lat;lon;timestamp;P1;durP1;ratioP1;P2;durP2;ratioP2
56868;SDS011;42754;0.000;0.000;2022-10-31T00:00:45;10.10;;;3.38;;
56868;SDS011;42754;0.000;0.000;2022-10-31T00:03:11;9.82;;;3.97;;
56868;SDS011;42754;0.000;0.000;2022-10-31T00:05:44;10.40;;;3.38;;
56868;SDS011;42754;0.000;0.000;2022-10-31T00:08:11;9.48;;;3.33;;
56868;SDS011;42754;0.000;0.000;2022-10-31T00:10:40;10.23;;;3.22;;
56868;SDS011;42754;0.000;0.000;2022-10-31T00:13:07;8.55;;;3.90;;
56868;SDS011;42754;0.000;0.000;2022-10-31T00:15:34;14.13;;;3.80;;
56868;SDS011;42754;0.000;0.000;2022-10-31T00:18:01;11.45;;;4.22;;
56868;SDS011;42754;0.000;0.000;2022-10-31T00:20:27;10.38;;;3.88;;
56868;SDS011;42754;0.000;0.000;2022-10-31T00:22:57;14.63;;;4.22;;
56868;SDS011;42754;0.000;0.000;2022-10-31T00:25:23;7.28;;;4.38;;
56868;SDS011;42754;0.000;0.000;2022-10-31T00:27:49;10.68;;;3.60;;
56868;SDS011;42754;0.000;0.000;2022-10-31T00:30:18;12.70;;;3.53;;
56868;SDS011;42754;0.000;0.000;2022-10-31T00:32:44;5.78;;;3.60;;
56868;SDS011;42754;0.000;0.000;2022-10-31T00:35:10;10.10;;;4.10;;
56868;SDS011;42754;0.000;0.000;2022-10-31T00:37:36;12.93;;;3.78;;
56868;SDS011;42754;0.000;0.000;2022-10-31T00:40:02;8.90;;;3.78;;
56868;SDS011;42754;0.000;0.000;2022-10-31T00:42:28;10.27;;;4.03;;
56868;SDS011;42754;0.000;0.000;2022-10-31T00:44:54;12.15;;;4.32;;
56868;SDS011;42754;0.000;0.000;2022-10-31T00:47:20;12.38;;;4.35;;
56868;SDS011;42754;0.000;0.000;2022-10-31T00:49:46;11.95;;;4.18;;
56868;SDS011;42754;0.000;0.000;2022-10-31T00:52:13;10.75;;;4.75;;
56868;SDS011;42754;0.000;0.000;2022-10-31T00:54:39;20.73;;;6.40;;
56868;SDS011;42754;0.000;0.000;2022-10-31T00:57:05;22.85;;;8.25;;
56868;SDS011;42754;0.000;0.000;2022-10-31T00:59:31;11.15;;;6.82;;
56868;SDS011;42754;0.000;0.000;2022-10-31T01:01:57;15.88;;;7.00;;
56868;SDS011;42754;0.000;0.000;2022-10-31T01:04:23;18.05;;;6.63;;
56868;SDS011;42754;0.000;0.000;2022-10-31T01:06:51;16.05;;;6.90;;
56868;SDS011;42754;0.000;0.000;2022-10-31T01:09:17;21.10;;;8.20;;
56868;SDS011;42754;0.000;0.000;2022-10-31T01:11:43;16.73;;;7.65;;
56868;SDS011;42754;0.000;0.000;2022-10-31T01:14:09;15.52;;;7.03;;
56868;SDS011;42754;0.000;0.000;2022-10-31T01:16:36;15.18;;;6.75;;
56868;SDS011;42754;0.000;0.000;2022-10-31T01:19:02;14.82;;;6.53;;
56868;SDS011;42754;0.000;0.000;2022-10-31T01:21:29;14.98;;;6.60;;
56868;SDS011;42754;0.000;0.000;2022-10-31T01:23:55;16.40;;;7.95;;
56868;SDS011;42754;0.000;0.000;2022-10-31T01:26:23;14.35;;;6.25;;
56868;SDS011;42754;0.000;0.000;2022-10-31T01:31:23;15.48;;;7.03;;
56868;SDS011;42754;0.000;0.000;2022-10-31T01:33:49;19.83;;;7.47;;
56868;SDS011;42754;0.000;0.000;2022-10-31T01:36:18;15.73;;;6.63;;
56868;SDS011;42754;0.000;0.000;2022-10-31T01:38:45;17.83;;;6.43;;
56868;SDS011;42754;0.000;0.000;2022-10-31T01:41:13;18.20;;;6.25;;
56868;SDS011;42754;0.000;0.000;2022-10-31T01:43:46;14.50;;;5.00;;
56868;SDS011;42754;0.000;0.000;2022-10-31T01:46:13;16.42;;;5.93;;
56868;SDS011;42754;0.000;0.000;2022-10-31T01:48:42;22.38;;;6.85;;
56868;SDS011;42754;0.000;0.000;2022-10-31T01:51:09;14.90;;;7.15;;
56868;SDS011;42754;0.000;0.000;2022-10-31T01:53:37;22.20;;;8.80;;
56868;SDS011;42754;0.000;0.000;2022-10-31T01:56:04;15.77;;;7.30;;
56868;SDS011;42754;0.000;0.000;2022-10-31T01:58:34;24.77;;;9.00;;
56868;SDS011;42754;0.000;0.000;2022-10-31T02:01:00;23.17;;;9.23;;
56868;SDS011;42754;0.000;0.000;2022-10-31T02:03:27;17.88;;;7.70;;
56868;SDS011;42754;0.000;0.000;2022-10-31T02:05:54;15.32;;;7.68;;
56868;SDS011;42754;0.000;0.000;2022-10-31T02:08:28;22.55;;;9.00;;
56868;SDS011;42754;0.000;0.000;2022-10-31T02:10:54;17.13;;;6.82;;
56868;SDS011;42754;0.000;0.000;2022-10-31T02:13:21;13.90;;;6.38;;
56868;SDS011;42754;0.000;0.000;2022-10-31T02:15:49;15.63;;;6.00;;
56868;SDS011;42754;0.000;0.000;2022-10-31T02:18:18;32.40;;;7.07;;
56868;SDS011;42754;0.000;0.000;2022-10-31T02:20:53;16.42;;;6.53;;
56868;SDS011;42754;0.000;0.000;2022-10-31T02:31:18;21.50;;;7.10;;
56868;SDS011;42754;0.000;0.000;2022-10-31T02:36:18;20.88;;;7.82;;
56868;SDS011;42754;0.000;0.000;2022-10-31T02:41:19;22.42;;;10.00;;
56868;SDS011;42754;0.000;0.000;2022-10-31T02:44:08;28.75;;;9.50;;
56868;SDS011;42754;0.000;0.000;2022-10-31T02:47:36;19.15;;;9.57;;
56868;SDS011;42754;0.000;0.000;2022-10-31T02:49:45;20.83;;;8.57;;
56868;SDS011;42754;0.000;0.000;2022-10-31T02:52:21;15.20;;;7.50;;
56868;SDS011;42754;0.000;0.000;2022-10-31T02:54:47;16.20;;;7.93;;
56868;SDS011;42754;0.000;0.000;2022-10-31T02:57:14;25.58;;;8.70;;
56868;SDS011;42754;0.000;0.000;2022-10-31T02:59:44;15.70;;;8.05;;
56868;SDS011;42754;0.000;0.000;2022-10-31T03:02:21;12.00;;;7.35;;
56868;SDS011;42754;0.000;0.000;2022-10-31T03:05:01;16.05;;;7.30;;
56868;SDS011;42754;0.000;0.000;2022-10-31T03:13:05;12.68;;;6.30;;
56868;SDS011;42754;0.000;0.000;2022-10-31T03:15:33;11.95;;;5.47;;
56868;SDS011;42754;0.000;0.000;2022-10-31T03:18:14;17.15;;;6.57;;
56868;SDS011;42754;0.000;0.000;2022-10-31T03:20:43;15.57;;;5.17;;
56868;SDS011;42754;0.000;0.000;2022-10-31T03:23:12;12.80;;;5.07;;
56868;SDS011;42754;0.000;0.000;2022-10-31T03:25:39;13.98;;;4.82;;
56868;SDS011;42754;0.000;0.000;2022-10-31T03:28:06;17.38;;;5.10;;
56868;SDS011;42754;0.000;0.000;2022-10-31T03:30:33;15.93;;;5.80;;
56868;SDS011;42754;0.000;0.000;2022-10-31T03:33:02;11.63;;;4.32;;
56868;SDS011;42754;0.000;0.000;2022-10-31T03:35:29;13.00;;;5.50;;
56868;SDS011;42754;0.000;0.000;2022-10-31T03:38:02;17.25;;;5.63;;
56868;SDS011;42754;0.000;0.000;2022-10-31T03:40:29;13.20;;;4.82;;
56868;SDS011;42754;0.000;0.000;2022-10-31T03:42:58;14.10;;;5.18;;
56868;SDS011;42754;0.000;0.000;2022-10-31T03:45:27;14.48;;;5.03;;
56868;SDS011;42754;0.000;0.000;2022-10-31T03:47:54;16.60;;;5.22;;
56868;SDS011;42754;0.000;0.000;2022-10-31T03:50:21;11.63;;;5.35;;
56868;SDS011;42754;0.000;0.000;2022-10-31T03:55:40;14.57;;;5.82;;
56868;SDS011;42754;0.000;0.000;2022-10-31T03:58:09;11.05;;;4.95;;
56868;SDS011;42754;0.000;0.000;2022-10-31T04:00:38;12.75;;;5.70;;
56868;SDS011;42754;0.000;0.000;2022-10-31T04:06:04;12.57;;;5.78;;
56868;SDS011;42754;0.000;0.000;2022-10-31T04:08:31;15.77;;;5.82;;
56868;SDS011;42754;0.000;0.000;2022-10-31T04:10:59;33.67;;;7.43;;
56868;SDS011;42754;0.000;0.000;2022-10-31T04:13:29;16.27;;;5.45;;
56868;SDS011;42754;0.000;0.000;2022-10-31T04:15:55;23.05;;;6.43;;
56868;SDS011;42754;0.000;0.000;2022-10-31T04:18:23;13.68;;;5.50;;
56868;SDS011;42754;0.000;0.000;2022-10-31T04:20:58;14.65;;;6.00;;
56868;SDS011;42754;0.000;0.000;2022-10-31T04:23:25;12.57;;;5.68;;
56868;SDS011;42754;0.000;0.000;2022-10-31T04:25:51;13.23;;;6.13;;
56868;SDS011;42754;0.000;0.000;2022-10-31T04:28:17;15.45;;;6.00;;
56868;SDS011;42754;0.000;0.000;2022-10-31T04:30:45;12.88;;;5.63;;
56868;SDS011;42754;0.000;0.000;2022-10-31T04:33:11;13.60;;;6.03;;
56868;SDS011;42754;0.000;0.000;2022-10-31T04:35:37;9.13;;;5.38;;
56868;SDS011;42754;0.000;0.000;2022-10-31T04:38:03;13.93;;;5.50;;
56868;SDS011;42754;0.000;0.000;2022-10-31T04:40:29;17.17;;;6.50;;
56868;SDS011;42754;0.000;0.000;2022-10-31T04:42:55;13.88;;;6.53;;
56868;SDS011;42754;0.000;0.000;2022-10-31T04:45:21;12.60;;;6.20;;
56868;SDS011;42754;0.000;0.000;2022-10-31T04:47:47;12.15;;;6.57;;
56868;SDS011;42754;0.000;0.000;2022-10-31T04:50:13;13.68;;;6.25;;
56868;SDS011;42754;0.000;0.000;2022-10-31T04:52:39;10.75;;;5.40;;
56868;SDS011;42754;0.000;0.000;2022-10-31T04:55:06;13.43;;;6.35;;
56868;SDS011;42754;0.000;0.000;2022-10-31T04:57:32;17.17;;;6.93;;
56868;SDS011;42754;0.000;0.000;2022-10-31T04:59:58;22.40;;;7.40;;
56868;SDS011;42754;0.000;0.000;2022-10-31T05:02:24;16.45;;;5.82;;
56868;SDS011;42754;0.000;0.000;2022-10-31T05:04:50;13.18;;;6.32;;
56868;SDS011;42754;0.000;0.000;2022-10-31T05:07:16;15.25;;;6.13;;
56868;SDS011;42754;0.000;0.000;2022-10-31T05:09:42;19.10;;;6.93;;
56868;SDS011;42754;0.000;0.000;2022-10-31T05:12:08;17.20;;;7.88;;
56868;SDS011;42754;0.000;0.000;2022-10-31T05:14:34;14.43;;;6.32;;
56868;SDS011;42754;0.000;0.000;2022-10-31T05:17:00;19.13;;;7.70;;
56868;SDS011;42754;0.000;0.000;2022-10-31T05:19:26;17.13;;;7.50;;
56868;SDS011;42754;0.000;0.000;2022-10-31T05:21:52;14.35;;;5.90;;
56868;SDS011;42754;0.000;0.000;2022-10-31T05:24:20;15.90;;;5.78;;
56868;SDS011;42754;0.000;0.000;2022-10-31T05:26:47;13.23;;;6.40;;
56868;SDS011;42754;0.000;0.000;2022-10-31T05:29:13;12.95;;;6.28;;
56868;SDS011;42754;0.000;0.000;2022-10-31T05:31:39;16.27;;;6.82;;
56868;SDS011;42754;0.000;0.000;2022-10-31T05:34:05;21.92;;;7.32;;
56868;SDS011;42754;0.000;0.000;2022-10-31T05:36:31;14.93;;;7.00;;
56868;SDS011;42754;0.000;0.000;2022-10-31T05:38:57;16.40;;;8.07;;
56868;SDS011;42754;0.000;0.000;2022-10-31T05:41:23;16.85;;;7.47;;
56868;SDS011;42754;0.000;0.000;2022-10-31T05:43:49;24.00;;;7.57;;
56868;SDS011;42754;0.000;0.000;2022-10-31T05:46:15;15.50;;;7.28;;
56868;SDS011;42754;0.000;0.000;2022-10-31T05:48:42;18.70;;;8.25;;
56868;SDS011;42754;0.000;0.000;2022-10-31T05:51:08;16.27;;;6.97;;
56868;SDS011;42754;0.000;0.000;2022-10-31T05:53:34;18.92;;;7.82;;
56868;SDS011;42754;0.000;0.000;2022-10-31T05:56:00;17.92;;;6.55;;
56868;SDS011;42754;0.000;0.000;2022-10-31T05:58:26;15.20;;;7.65;;
56868;SDS011;42754;0.000;0.000;2022-10-31T06:00:53;15.90;;;7.40;;
56868;SDS011;42754;0.000;0.000;2022-10-31T06:03:20;21.70;;;8.52;;
56868;SDS011;42754;0.000;0.000;2022-10-31T06:05:46;15.10;;;8.35;;
56868;SDS011;42754;0.000;0.000;2022-10-31T06:08:12;19.65;;;8.70;;
56868;SDS011;42754;0.000;0.000;2022-10-31T06:10:38;24.55;;;8.02;;
56868;SDS011;42754;0.000;0.000;2022-10-31T06:13:04;19.63;;;8.25;;
56868;SDS011;42754;0.000;0.000;2022-10-31T06:15:34;18.85;;;9.57;;
56868;SDS011;42754;0.000;0.000;2022-10-31T06:18:05;22.20;;;9.60;;
56868;SDS011;42754;0.000;0.000;2022-10-31T06:20:35;24.10;;;10.15;;
56868;SDS011;42754;0.000;0.000;2022-10-31T06:23:01;22.13;;;9.20;;
56868;SDS011;42754;0.000;0.000;2022-10-31T06:25:27;16.55;;;8.60;;
56868;SDS011;42754;0.000;0.000;2022-10-31T06:27:53;26.15;;;9.95;;
56868;SDS011;42754;0.000;0.000;2022-10-31T06:30:20;23.60;;;9.75;;
56868;SDS011;42754;0.000;0.000;2022-10-31T06:32:46;21.60;;;9.70;;
56868;SDS011;42754;0.000;0.000;2022-10-31T06:35:13;23.40;;;10.15;;
56868;SDS011;42754;0.000;0.000;2022-10-31T06:37:39;21.23;;;10.05;;
56868;SDS011;42754;0.000;0.000;2022-10-31T06:40:05;17.77;;;9.60;;
56868;SDS011;42754;0.000;0.000;2022-10-31T06:42:32;20.40;;;8.48;;
56868;SDS011;42754;0.000;0.000;2022-10-31T06:44:59;20.15;;;7.43;;
56868;SDS011;42754;0.000;0.000;2022-10-31T06:47:25;19.33;;;8.43;;
56868;SDS011;42754;0.000;0.000;2022-10-31T06:49:51;21.00;;;7.95;;
56868;SDS011;42754;0.000;0.000;2022-10-31T06:52:17;14.38;;;6.22;;
56868;SDS011;42754;0.000;0.000;2022-10-31T06:54:44;13.40;;;7.25;;
56868;SDS011;42754;0.000;0.000;2022-10-31T06:57:10;13.15;;;5.65;;
56868;SDS011;42754;0.000;0.000;2022-10-31T06:59:36;16.10;;;6.85;;
56868;SDS011;42754;0.000;0.000;2022-10-31T07:02:02;17.15;;;7.47;;
56868;SDS011;42754;0.000;0.000;2022-10-31T07:04:28;34.58;;;9.32;;
56868;SDS011;42754;0.000;0.000;2022-10-31T07:06:54;25.55;;;9.52;;
56868;SDS011;42754;0.000;0.000;2022-10-31T07:09:20;23.80;;;9.63;;
56868;SDS011;42754;0.000;0.000;2022-10-31T07:11:46;23.23;;;10.60;;
56868;SDS011;42754;0.000;0.000;2022-10-31T07:14:12;24.45;;;9.43;;
56868;SDS011;42754;0.000;0.000;2022-10-31T07:16:38;23.08;;;9.20;;
56868;SDS011;42754;0.000;0.000;2022-10-31T07:19:04;22.33;;;8.80;;
56868;SDS011;42754;0.000;0.000;2022-10-31T07:21:30;23.38;;;8.32;;
56868;SDS011;42754;0.000;0.000;2022-10-31T07:23:56;21.42;;;9.52;;
56868;SDS011;42754;0.000;0.000;2022-10-31T07:26:23;18.67;;;8.27;;
56868;SDS011;42754;0.000;0.000;2022-10-31T07:28:48;13.82;;;7.30;;
56868;SDS011;42754;0.000;0.000;2022-10-31T07:31:15;26.00;;;9.00;;
56868;SDS011;42754;0.000;0.000;2022-10-31T07:33:41;28.58;;;9.98;;
56868;SDS011;42754;0.000;0.000;2022-10-31T07:36:07;30.75;;;11.50;;
56868;SDS011;42754;0.000;0.000;2022-10-31T07:38:33;34.85;;;10.15;;
56868;SDS011;42754;0.000;0.000;2022-10-31T07:40:59;40.97;;;12.45;;
56868;SDS011;42754;0.000;0.000;2022-10-31T07:43:25;32.50;;;12.52;;
56868;SDS011;42754;0.000;0.000;2022-10-31T07:45:52;30.70;;;11.70;;
56868;SDS011;42754;0.000;0.000;2022-10-31T07:48:18;25.95;;;10.95;;
56868;SDS011;42754;0.000;0.000;2022-10-31T07:50:45;22.30;;;10.23;;
56868;SDS011;42754;0.000;0.000;2022-10-31T07:53:11;27.55;;;11.85;;
56868;SDS011;42754;0.000;0.000;2022-10-31T07:55:38;27.88;;;13.93;;
56868;SDS011;42754;0.000;0.000;2022-10-31T07:58:08;23.08;;;11.73;;
56868;SDS011;42754;0.000;0.000;2022-10-31T08:00:36;29.30;;;11.10;;
56868;SDS011;42754;0.000;0.000;2022-10-31T08:05:29;22.63;;;9.85;;
56868;SDS011;42754;0.000;0.000;2022-10-31T08:07:56;19.83;;;10.13;;
56868;SDS011;42754;0.000;0.000;2022-10-31T08:10:23;23.00;;;9.88;;
56868;SDS011;42754;0.000;0.000;2022-10-31T08:12:56;19.05;;;8.93;;
56868;SDS011;42754;0.000;0.000;2022-10-31T08:15:22;26.17;;;12.07;;
56868;SDS011;42754;0.000;0.000;2022-10-31T08:17:48;19.30;;;12.02;;
56868;SDS011;42754;0.000;0.000;2022-10-31T08:20:14;32.80;;;11.40;;
56868;SDS011;42754;0.000;0.000;2022-10-31T08:22:41;32.42;;;13.68;;
56868;SDS011;42754;0.000;0.000;2022-10-31T08:25:07;30.02;;;14.38;;
56868;SDS011;42754;0.000;0.000;2022-10-31T08:27:33;38.88;;;16.05;;
56868;SDS011;42754;0.000;0.000;2022-10-31T08:29:59;27.42;;;15.23;;
56868;SDS011;42754;0.000;0.000;2022-10-31T08:32:26;45.30;;;17.60;;
56868;SDS011;42754;0.000;0.000;2022-10-31T08:34:52;25.60;;;15.05;;
56868;SDS011;42754;0.000;0.000;2022-10-31T08:37:18;35.70;;;17.70;;
56868;SDS011;42754;0.000;0.000;2022-10-31T08:39:47;29.13;;;15.20;;
56868;SDS011;42754;0.000;0.000;2022-10-31T08:42:14;27.00;;;13.70;;
56868;SDS011;42754;0.000;0.000;2022-10-31T08:44:40;21.85;;;12.77;;
56868;SDS011;42754;0.000;0.000;2022-10-31T08:47:06;20.98;;;11.73;;
56868;SDS011;42754;0.000;0.000;2022-10-31T08:49:34;25.00;;;12.68;;
56868;SDS011;42754;0.000;0.000;2022-10-31T08:52:00;20.60;;;11.88;;
56868;SDS011;42754;0.000;0.000;2022-10-31T08:54:26;24.20;;;13.80;;
56868;SDS011;42754;0.000;0.000;2022-10-31T08:56:53;26.02;;;12.20;;
56868;SDS011;42754;0.000;0.000;2022-10-31T08:59:20;24.33;;;12.30;;
56868;SDS011;42754;0.000;0.000;2022-10-31T09:01:47;28.38;;;15.35;;
56868;SDS011;42754;0.000;0.000;2022-10-31T09:04:13;28.40;;;14.77;;
56868;SDS011;42754;0.000;0.000;2022-10-31T09:06:39;25.23;;;13.45;;
56868;SDS011;42754;0.000;0.000;2022-10-31T09:09:05;29.27;;;14.55;;
56868;SDS011;42754;0.000;0.000;2022-10-31T09:11:31;29.92;;;14.73;;
56868;SDS011;42754;0.000;0.000;2022-10-31T09:13:57;29.80;;;13.52;;
56868;SDS011;42754;0.000;0.000;2022-10-31T09:16:23;32.08;;;15.73;;
56868;SDS011;42754;0.000;0.000;2022-10-31T09:18:49;33.45;;;17.00;;
56868;SDS011;42754;0.000;0.000;2022-10-31T09:21:15;28.58;;;14.38;;
56868;SDS011;42754;0.000;0.000;2022-10-31T09:23:42;28.27;;;15.88;;
56868;SDS011;42754;0.000;0.000;2022-10-31T09:26:07;31.00;;;16.23;;
56868;SDS011;42754;0.000;0.000;2022-10-31T09:28:34;31.27;;;17.45;;
56868;SDS011;42754;0.000;0.000;2022-10-31T09:31:00;37.03;;;18.85;;
56868;SDS011;42754;0.000;0.000;2022-10-31T09:33:26;32.10;;;16.75;;
56868;SDS011;42754;0.000;0.000;2022-10-31T09:35:52;34.72;;;16.52;;
56868;SDS011;42754;0.000;0.000;2022-10-31T09:38:19;32.42;;;14.82;;
56868;SDS011;42754;0.000;0.000;2022-10-31T09:40:55;34.08;;;17.23;;
56868;SDS011;42754;0.000;0.000;2022-10-31T09:46:18;32.10;;;16.15;;
56868;SDS011;42754;0.000;0.000;2022-10-31T09:49:20;32.38;;;15.48;;
56868;SDS011;42754;0.000;0.000;2022-10-31T09:52:10;35.67;;;18.25;;
56868;SDS011;42754;0.000;0.000;2022-10-31T09:57:35;41.15;;;19.30;;
56868;SDS011;42754;0.000;0.000;2022-10-31T10:00:05;46.10;;;21.52;;
56868;SDS011;42754;0.000;0.000;2022-10-31T10:04:59;30.05;;;16.05;;
56868;SDS011;42754;0.000;0.000;2022-10-31T10:09:55;32.22;;;15.50;;
56868;SDS011;42754;0.000;0.000;2022-10-31T10:17:58;34.50;;;14.20;;
56868;SDS011;42754;0.000;0.000;2022-10-31T10:20:40;32.42;;;14.65;;
56868;SDS011;42754;0.000;0.000;2022-10-31T10:23:12;35.05;;;15.63;;
56868;SDS011;42754;0.000;0.000;2022-10-31T10:25:40;34.45;;;15.60;;
56868;SDS011;42754;0.000;0.000;2022-10-31T10:28:13;31.98;;;14.50;;
56868;SDS011;42754;0.000;0.000;2022-10-31T10:30:44;27.15;;;14.80;;
56868;SDS011;42754;0.000;0.000;2022-10-31T10:33:20;27.88;;;15.60;;
56868;SDS011;42754;0.000;0.000;2022-10-31T10:35:47;23.58;;;13.02;;
56868;SDS011;42754;0.000;0.000;2022-10-31T10:38:17;32.60;;;13.55;;
56868;SDS011;42754;0.000;0.000;2022-10-31T10:40:44;30.63;;;12.80;;
56868;SDS011;42754;0.000;0.000;2022-10-31T10:49:03;26.95;;;12.57;;
56868;SDS011;42754;0.000;0.000;2022-10-31T10:51:43;31.05;;;13.98;;
56868;SDS011;42754;0.000;0.000;2022-10-31T10:57:01;29.90;;;13.60;;
56868;SDS011;42754;0.000;0.000;2022-10-31T10:59:31;29.63;;;14.48;;
56868;SDS011;42754;0.000;0.000;2022-10-31T11:01:57;29.83;;;12.68;;
56868;SDS011;42754;0.000;0.000;2022-10-31T11:07:01;27.67;;;13.93;;
56868;SDS011;42754;0.000;0.000;2022-10-31T11:09:27;31.90;;;15.32;;
56868;SDS011;42754;0.000;0.000;2022-10-31T11:11:53;30.65;;;13.82;;
56868;SDS011;42754;0.000;0.000;2022-10-31T11:14:20;31.67;;;13.70;;
56868;SDS011;42754;0.000;0.000;2022-10-31T11:16:48;29.98;;;14.30;;
56868;SDS011;42754;0.000;0.000;2022-10-31T11:21:41;30.48;;;14.93;;
56868;SDS011;42754;0.000;0.000;2022-10-31T11:26:37;33.65;;;15.55;;
56868;SDS011;42754;0.000;0.000;2022-10-31T11:29:04;32.75;;;14.00;;
56868;SDS011;42754;0.000;0.000;2022-10-31T11:31:31;33.80;;;13.82;;
56868;SDS011;42754;0.000;0.000;2022-10-31T11:34:32;35.25;;;14.70;;
56868;SDS011;42754;0.000;0.000;2022-10-31T11:36:50;28.30;;;13.45;;
56868;SDS011;42754;0.000;0.000;2022-10-31T11:39:23;24.70;;;14.23;;
56868;SDS011;42754;0.000;0.000;2022-10-31T11:41:50;33.78;;;15.02;;
56868;SDS011;42754;0.000;0.000;2022-10-31T11:46:49;32.38;;;13.18;;
56868;SDS011;42754;0.000;0.000;2022-10-31T11:49:17;30.13;;;16.35;;
56868;SDS011;42754;0.000;0.000;2022-10-31T11:51:47;33.10;;;15.35;;
56868;SDS011;42754;0.000;0.000;2022-10-31T11:54:24;30.75;;;14.88;;
56868;SDS011;42754;0.000;0.000;2022-10-31T11:56:51;30.23;;;14.10;;
56868;SDS011;42754;0.000;0.000;2022-10-31T11:59:18;36.33;;;16.40;;
56868;SDS011;42754;0.000;0.000;2022-10-31T12:01:50;36.50;;;16.70;;
56868;SDS011;42754;0.000;0.000;2022-10-31T12:04:16;40.33;;;17.75;;
56868;SDS011;42754;0.000;0.000;2022-10-31T12:06:43;37.33;;;17.80;;
56868;SDS011;42754;0.000;0.000;2022-10-31T12:11:46;39.55;;;16.45;;
56868;SDS011;42754;0.000;0.000;2022-10-31T12:21:50;40.08;;;17.23;;
56868;SDS011;42754;0.000;0.000;2022-10-31T12:24:29;42.15;;;17.77;;
56868;SDS011;42754;0.000;0.000;2022-10-31T12:32:04;32.83;;;15.75;;
56868;SDS011;42754;0.000;0.000;2022-10-31T12:34:41;36.10;;;15.55;;
56868;SDS011;42754;0.000;0.000;2022-10-31T12:58:22;37.42;;;16.27;;
56868;SDS011;42754;0.000;0.000;2022-10-31T13:00:47;38.17;;;16.85;;
56868;SDS011;42754;0.000;0.000;2022-10-31T13:03:19;33.03;;;16.02;;
56868;SDS011;42754;0.000;0.000;2022-10-31T13:05:48;35.55;;;14.00;;
56868;SDS011;42754;0.000;0.000;2022-10-31T13:08:26;32.70;;;15.25;;
56868;SDS011;42754;0.000;0.000;2022-10-31T13:13:53;37.20;;;16.17;;
56868;SDS011;42754;0.000;0.000;2022-10-31T13:16:21;42.22;;;17.13;;
56868;SDS011;42754;0.000;0.000;2022-10-31T13:18:52;38.10;;;17.02;;
56868;SDS011;42754;0.000;0.000;2022-10-31T13:21:25;37.30;;;16.15;;
56868;SDS011;42754;0.000;0.000;2022-10-31T13:23:52;35.22;;;14.52;;
56868;SDS011;42754;0.000;0.000;2022-10-31T13:31:32;38.55;;;15.27;;
56868;SDS011;42754;0.000;0.000;2022-10-31T13:34:01;33.60;;;16.10;;
56868;SDS011;42754;0.000;0.000;2022-10-31T13:36:32;42.13;;;17.48;;
56868;SDS011;42754;0.000;0.000;2022-10-31T13:44:23;40.60;;;15.82;;
56868;SDS011;42754;0.000;0.000;2022-10-31T13:46:55;33.03;;;13.70;;
56868;SDS011;42754;0.000;0.000;2022-10-31T13:52:11;47.65;;;16.35;;
56868;SDS011;42754;0.000;0.000;2022-10-31T13:57:19;35.60;;;13.48;;
56868;SDS011;42754;0.000;0.000;2022-10-31T13:59:52;36.35;;;14.95;;
56868;SDS011;42754;0.000;0.000;2022-10-31T14:02:22;31.08;;;14.13;;
56868;SDS011;42754;0.000;0.000;2022-10-31T14:04:51;39.30;;;15.65;;
56868;SDS011;42754;0.000;0.000;2022-10-31T14:07:26;36.70;;;16.20;;
56868;SDS011;42754;0.000;0.000;2022-10-31T14:10:31;35.70;;;16.23;;
56868;SDS011;42754;0.000;0.000;2022-10-31T14:13:06;39.70;;;15.70;;
56868;SDS011;42754;0.000;0.000;2022-10-31T14:15:36;33.65;;;16.10;;
56868;SDS011;42754;0.000;0.000;2022-10-31T14:18:06;41.47;;;17.13;;
56868;SDS011;42754;0.000;0.000;2022-10-31T14:20:36;45.88;;;17.48;;
56868;SDS011;42754;0.000;0.000;2022-10-31T14:23:12;40.75;;;17.10;;
56868;SDS011;42754;0.000;0.000;2022-10-31T14:25:40;38.10;;;16.77;;
56868;SDS011;42754;0.000;0.000;2022-10-31T14:30:59;41.70;;;17.25;;
56868;SDS011;42754;0.000;0.000;2022-10-31T14:33:29;39.08;;;16.77;;
56868;SDS011;42754;0.000;0.000;2022-10-31T14:36:15;39.20;;;17.15;;
56868;SDS011;42754;0.000;0.000;2022-10-31T14:41:25;49.78;;;19.35;;
56868;SDS011;42754;0.000;0.000;2022-10-31T14:49:21;42.17;;;18.77;;
56868;SDS011;42754;0.000;0.000;2022-10-31T14:51:44;40.05;;;18.73;;
56868;SDS011;42754;0.000;0.000;2022-10-31T14:54:22;41.38;;;18.92;;
56868;SDS011;42754;0.000;0.000;2022-10-31T14:56:52;44.43;;;17.90;;
56868;SDS011;42754;0.000;0.000;2022-10-31T14:59:21;46.97;;;18.70;;
56868;SDS011;42754;0.000;0.000;2022-10-31T15:01:56;41.30;;;16.90;;
56868;SDS011;42754;0.000;0.000;2022-10-31T15:04:23;41.75;;;18.52;;
56868;SDS011;42754;0.000;0.000;2022-10-31T15:09:36;46.60;;;18.45;;
56868;SDS011;42754;0.000;0.000;2022-10-31T15:14:35;45.47;;;18.25;;
56868;SDS011;42754;0.000;0.000;2022-10-31T15:17:02;52.97;;;19.05;;
56868;SDS011;42754;0.000;0.000;2022-10-31T15:19:32;46.10;;;19.30;;
56868;SDS011;42754;0.000;0.000;2022-10-31T15:21:59;42.53;;;17.65;;
56868;SDS011;42754;0.000;0.000;2022-10-31T15:24:31;51.97;;;20.77;;
56868;SDS011;42754;0.000;0.000;2022-10-31T15:27:01;45.45;;;19.17;;
56868;SDS011;42754;0.000;0.000;2022-10-31T15:29:30;45.83;;;19.77;;
56868;SDS011;42754;0.000;0.000;2022-10-31T15:31:57;42.35;;;19.40;;
56868;SDS011;42754;0.000;0.000;2022-10-31T15:37:17;43.05;;;19.88;;
56868;SDS011;42754;0.000;0.000;2022-10-31T15:39:48;42.15;;;19.65;;
56868;SDS011;42754;0.000;0.000;2022-10-31T15:42:28;44.92;;;19.88;;
56868;SDS011;42754;0.000;0.000;2022-10-31T15:45:04;43.88;;;18.13;;
56868;SDS011;42754;0.000;0.000;2022-10-31T15:47:34;46.05;;;18.77;;
56868;SDS011;42754;0.000;0.000;2022-10-31T15:50:01;43.00;;;19.05;;
56868;SDS011;42754;0.000;0.000;2022-10-31T15:52:31;52.80;;;20.15;;
56868;SDS011;42754;0.000;0.000;2022-10-31T15:57:42;46.20;;;19.67;;
56868;SDS011;42754;0.000;0.000;2022-10-31T16:05:45;40.55;;;18.70;;
56868;SDS011;42754;0.000;0.000;2022-10-31T16:08:23;44.17;;;19.13;;
56868;SDS011;42754;0.000;0.000;2022-10-31T16:11:34;45.65;;;18.20;;
56868;SDS011;42754;0.000;0.000;2022-10-31T16:13:41;51.55;;;23.35;;
56868;SDS011;42754;0.000;0.000;2022-10-31T16:16:13;54.95;;;21.95;;
56868;SDS011;42754;0.000;0.000;2022-10-31T16:18:40;48.13;;;21.33;;
56868;SDS011;42754;0.000;0.000;2022-10-31T16:21:09;47.90;;;21.02;;
56868;SDS011;42754;0.000;0.000;2022-10-31T16:23:36;42.97;;;18.95;;
56868;SDS011;42754;0.000;0.000;2022-10-31T16:26:07;46.72;;;21.35;;
56868;SDS011;42754;0.000;0.000;2022-10-31T16:28:35;58.78;;;28.33;;
56868;SDS011;42754;0.000;0.000;2022-10-31T16:31:05;53.97;;;21.58;;
56868;SDS011;42754;0.000;0.000;2022-10-31T16:33:42;50.53;;;21.58;;
56868;SDS011;42754;0.000;0.000;2022-10-31T16:38:54;50.95;;;26.08;;
56868;SDS011;42754;0.000;0.000;2022-10-31T16:41:24;46.53;;;23.42;;
56868;SDS011;42754;0.000;0.000;2022-10-31T16:46:31;43.78;;;19.73;;
56868;SDS011;42754;0.000;0.000;2022-10-31T16:48:57;52.85;;;19.10;;
56868;SDS011;42754;0.000;0.000;2022-10-31T16:51:23;35.85;;;17.88;;
56868;SDS011;42754;0.000;0.000;2022-10-31T16:53:52;47.40;;;20.17;;
56868;SDS011;42754;0.000;0.000;2022-10-31T16:58:50;50.58;;;20.55;;
56868;SDS011;42754;0.000;0.000;2022-10-31T17:01:16;54.10;;;20.50;;
56868;SDS011;42754;0.000;0.000;2022-10-31T17:03:43;46.13;;;20.35;;
56868;SDS011;42754;0.000;0.000;2022-10-31T17:06:16;53.33;;;21.13;;
56868;SDS011;42754;0.000;0.000;2022-10-31T17:09:00;51.38;;;20.52;;
56868;SDS011;42754;0.000;0.000;2022-10-31T17:11:32;46.00;;;18.90;;
56868;SDS011;42754;0.000;0.000;2022-10-31T17:14:05;53.33;;;18.88;;
56868;SDS011;42754;0.000;0.000;2022-10-31T17:16:33;45.43;;;18.87;;
56868;SDS011;42754;0.000;0.000;2022-10-31T17:19:09;45.63;;;16.73;;
56868;SDS011;42754;0.000;0.000;2022-10-31T17:21:39;44.20;;;18.05;;
56868;SDS011;42754;0.000;0.000;2022-10-31T17:24:12;38.53;;;17.75;;